sensor_id;sensor_type;location;lat;lon;timestamp;pressure;altitude;pressure_sealevel;temperature;humidity
40490;BME280;26196;52.302;10.572;2024-03-06T00:02:01;100941.69;;;11.90;49.91
40490;BME280;26196;52.302;10.572;2024-03-06T00:06:04;100989.00;;;12.19;49.28
40490;BME280;26196;52.302;10.572;2024-03-06T00:10:06;100938.25;;;11.86;50.31
40490;BME280;26196;52.302;10.572;2024-03-06T00:14:07;100999.41;;;12.24;49.84
40490;BME280;26196;52.302;10.572;2024-03-06T00:18:09;101000.44;;;12.17;49.79
40490;BME280;26196;52.302;10.572;2024-03-06T00:22:11;101000.41;;;12.18;49.99
40490;BME280;26196;52.302;10.572;2024-03-06T00:26:13;101020.47;;;12.21;50.27
40490;BME280;26196;52.302;10.572;2024-03-06T00:30:14;101015.25;;;12.19;50.14
40490;BME280;26196;52.302;10.572;2024-03-06T00:34:16;101011.00;;;12.15;50.02
40490;BME280;26196;52.302;10.572;2024-03-06T00:38:18;100973.09;;;11.91;49.81
40490;BME280;26196;52.302;10.572;2024-03-06T00:42:19;101016.34;;;12.12;50.13
40490;BME280;26196;52.302;10.572;2024-03-06T00:46:21;101028.53;;;12.13;49.88
40490;BME280;26196;52.302;10.572;2024-03-06T00:50:23;101026.09;;;12.07;49.80
40490;BME280;26196;52.302;10.572;2024-03-06T00:54:25;101042.50;;;12.15;50.15
40490;BME280;26196;52.302;10.572;2024-03-06T00:58:26;101012.31;;;11.97;49.26
40490;BME280;26196;52.302;10.572;2024-03-06T01:02:28;101028.75;;;12.04;49.51
40490;BME280;26196;52.302;10.572;2024-03-06T01:06:29;100987.47;;;11.76;49.88
40490;BME280;26196;52.302;10.572;2024-03-06T01:10:31;101044.28;;;12.13;50.15
40490;BME280;26196;52.302;10.572;2024-03-06T01:14:33;101049.63;;;12.09;49.64
40490;BME280;26196;52.302;10.572;2024-03-06T01:18:37;100998.88;;;11.74;49.68
40490;BME280;26196;52.302;10.572;2024-03-06T01:22:38;101044.56;;;12.02;49.87
40490;BME280;26196;52.302;10.572;2024-03-06T01:26:40;100991.13;;;11.69;49.78
40490;BME280;26196;52.302;10.572;2024-03-06T01:30:42;101057.63;;;12.04;49.98
40490;BME280;26196;52.302;10.572;2024-03-06T01:34:43;101054.25;;;11.99;49.65
40490;BME280;26196;52.302;10.572;2024-03-06T01:38:45;101021.50;;;11.78;49.90
40490;BME280;26196;52.302;10.572;2024-03-06T01:42:47;100996.38;;;11.68;49.92
40490;BME280;26196;52.302;10.572;2024-03-06T01:46:52;100999.94;;;11.65;49.66
40490;BME280;26196;52.302;10.572;2024-03-06T01:50:56;101065.63;;;11.99;49.45
40490;BME280;26196;52.302;10.572;2024-03-06T01:54:59;101074.38;;;11.98;49.62
40490;BME280;26196;52.302;10.572;2024-03-06T01:59:01;101051.88;;;11.90;50.00
40490;BME280;26196;52.302;10.572;2024-03-06T02:03:04;101055.19;;;11.96;49.60
40490;BME280;26196;52.302;10.572;2024-03-06T02:07:10;101063.97;;;11.95;49.49
40490;BME280;26196;52.302;10.572;2024-03-06T02:11:12;101045.91;;;11.81;49.60
40490;BME280;26196;52.302;10.572;2024-03-06T02:15:13;101022.66;;;11.66;49.31
40490;BME280;26196;52.302;10.572;2024-03-06T02:19:16;101066.66;;;11.92;49.54
40490;BME280;26196;52.302;10.572;2024-03-06T02:23:17;101010.59;;;11.59;49.74
40490;BME280;26196;52.302;10.572;2024-03-06T02:27:19;101061.56;;;11.85;49.42
40490;BME280;26196;52.302;10.572;2024-03-06T02:31:21;101059.81;;;11.87;49.41
40490;BME280;26196;52.302;10.572;2024-03-06T02:35:24;101067.69;;;11.87;49.50
40490;BME280;26196;52.302;10.572;2024-03-06T02:39:25;101008.25;;;11.47;49.87
40490;BME280;26196;52.302;10.572;2024-03-06T02:43:27;101050.53;;;11.70;49.36
40490;BME280;26196;52.302;10.572;2024-03-06T02:47:28;101019.47;;;11.52;49.60
40490;BME280;26196;52.302;10.572;2024-03-06T02:51:30;101030.81;;;11.54;49.82
40490;BME280;26196;52.302;10.572;2024-03-06T02:55:32;101086.03;;;11.85;49.52
40490;BME280;26196;52.302;10.572;2024-03-06T02:59:33;101075.78;;;11.76;49.41
40490;BME280;26196;52.302;10.572;2024-03-06T03:03:35;101077.50;;;11.75;49.51
40490;BME280;26196;52.302;10.572;2024-03-06T03:07:37;101087.03;;;11.79;49.38
40490;BME280;26196;52.302;10.572;2024-03-06T03:11:38;101097.47;;;11.82;49.52
40490;BME280;26196;52.302;10.572;2024-03-06T03:15:40;101084.50;;;11.75;49.43
40490;BME280;26196;52.302;10.572;2024-03-06T03:19:43;101040.69;;;11.43;49.28
40490;BME280;26196;52.302;10.572;2024-03-06T03:23:44;101048.53;;;11.43;49.44
40490;BME280;26196;52.302;10.572;2024-03-06T03:27:46;101115.06;;;11.77;49.61
40490;BME280;26196;52.302;10.572;2024-03-06T03:31:48;101116.84;;;11.75;49.26
40490;BME280;26196;52.302;10.572;2024-03-06T03:35:50;101123.00;;;11.74;49.50
40490;BME280;26196;52.302;10.572;2024-03-06T03:39:51;101123.91;;;11.73;49.58
40490;BME280;26196;52.302;10.572;2024-03-06T03:43:53;101125.69;;;11.71;49.37
40490;BME280;26196;52.302;10.572;2024-03-06T03:47:54;101120.44;;;11.71;49.60
40490;BME280;26196;52.302;10.572;2024-03-06T03:51:56;101067.88;;;11.37;48.99
40490;BME280;26196;52.302;10.572;2024-03-06T03:55:58;101124.88;;;11.68;49.15
40490;BME280;26196;52.302;10.572;2024-03-06T03:59:59;101067.13;;;11.32;49.35
40490;BME280;26196;52.302;10.572;2024-03-06T04:04:01;101132.72;;;11.69;49.09
40490;BME280;26196;52.302;10.572;2024-03-06T04:08:03;101080.00;;;11.41;49.67
40490;BME280;26196;52.302;10.572;2024-03-06T04:12:07;101120.63;;;11.64;49.66
40490;BME280;26196;52.302;10.572;2024-03-06T04:16:08;101129.41;;;11.61;49.31
40490;BME280;26196;52.302;10.572;2024-03-06T04:20:10;101125.03;;;11.61;49.56
40490;BME280;26196;52.302;10.572;2024-03-06T04:24:13;101100.00;;;11.47;49.27
40490;BME280;26196;52.302;10.572;2024-03-06T04:28:15;101146.78;;;11.65;49.68
40490;BME280;26196;52.302;10.572;2024-03-06T04:32:16;101141.59;;;11.64;49.68
40490;BME280;26196;52.302;10.572;2024-03-06T04:36:18;101103.66;;;11.39;49.17
40490;BME280;26196;52.302;10.572;2024-03-06T04:40:19;101086.50;;;11.23;49.38
40490;BME280;26196;52.302;10.572;2024-03-06T04:44:23;101149.63;;;11.54;49.70
40490;BME280;26196;52.302;10.572;2024-03-06T04:48:25;101116.00;;;11.33;49.55
40490;BME280;26196;52.302;10.572;2024-03-06T04:52:27;101152.16;;;11.59;49.64
40490;BME280;26196;52.302;10.572;2024-03-06T04:56:28;101105.69;;;11.25;49.50
40490;BME280;26196;52.302;10.572;2024-03-06T05:00:30;101168.88;;;11.55;49.56
40490;BME280;26196;52.302;10.572;2024-03-06T05:04:32;101178.47;;;11.56;49.33
40490;BME280;26196;52.302;10.572;2024-03-06T05:08:51;101174.13;;;11.55;49.68
40490;BME280;26196;52.302;10.572;2024-03-06T05:13:10;101129.31;;;11.24;49.12
40490;BME280;26196;52.302;10.572;2024-03-06T05:17:29;101141.50;;;11.26;49.63
40490;BME280;26196;52.302;10.572;2024-03-06T05:21:48;101143.22;;;11.26;49.78
40490;BME280;26196;52.302;10.572;2024-03-06T05:26:07;101197.59;;;11.61;49.53
40490;BME280;26196;52.302;10.572;2024-03-06T05:30:27;101190.00;;;11.47;49.71
40490;BME280;26196;52.302;10.572;2024-03-06T05:34:47;101146.91;;;11.17;49.79
40490;BME280;26196;52.302;10.572;2024-03-06T05:39:06;101221.25;;;11.58;49.73
40490;BME280;26196;52.302;10.572;2024-03-06T05:43:31;101224.75;;;11.57;49.85
40490;BME280;26196;52.302;10.572;2024-03-06T05:47:50;101206.66;;;11.45;49.83
40490;BME280;26196;52.302;10.572;2024-03-06T05:52:09;101207.44;;;11.48;49.88
40490;BME280;26196;52.302;10.572;2024-03-06T05:56:28;101160.81;;;11.21;49.74
40490;BME280;26196;52.302;10.572;2024-03-06T06:00:47;101218.78;;;11.49;50.12
40490;BME280;26196;52.302;10.572;2024-03-06T06:04:49;101244.84;;;11.58;50.41
40490;BME280;26196;52.302;10.572;2024-03-06T06:09:10;101183.47;;;11.23;49.96
40490;BME280;26196;52.302;10.572;2024-03-06T06:13:18;101191.28;;;11.26;49.87
40490;BME280;26196;52.302;10.572;2024-03-06T06:17:19;101259.66;;;11.59;50.16
40490;BME280;26196;52.302;10.572;2024-03-06T06:21:26;101205.19;;;11.28;49.91
40490;BME280;26196;52.302;10.572;2024-03-06T06:25:28;101213.06;;;11.28;50.05
40490;BME280;26196;52.302;10.572;2024-03-06T06:29:29;101247.69;;;11.47;50.07
40490;BME280;26196;52.302;10.572;2024-03-06T06:33:31;101215.69;;;11.28;49.95
40490;BME280;26196;52.302;10.572;2024-03-06T06:37:33;101221.06;;;11.22;50.03
40490;BME280;26196;52.302;10.572;2024-03-06T06:41:35;101269.50;;;11.48;49.76
40490;BME280;26196;52.302;10.572;2024-03-06T06:45:37;101276.50;;;11.47;50.23
40490;BME280;26196;52.302;10.572;2024-03-06T06:49:39;101252.31;;;11.31;49.89
40490;BME280;26196;52.302;10.572;2024-03-06T06:53:41;101237.72;;;11.18;50.04
40490;BME280;26196;52.302;10.572;2024-03-06T06:57:43;101256.75;;;11.28;49.92
40490;BME280;26196;52.302;10.572;2024-03-06T07:01:45;101304.47;;;11.47;50.12
40490;BME280;26196;52.302;10.572;2024-03-06T07:05:47;101321.81;;;11.54;50.29
40490;BME280;26196;52.302;10.572;2024-03-06T07:09:49;101263.84;;;11.23;49.80
40490;BME280;26196;52.302;10.572;2024-03-06T07:13:50;101268.22;;;11.22;50.00
40490;BME280;26196;52.302;10.572;2024-03-06T07:17:52;101257.84;;;11.16;49.92
40490;BME280;26196;52.302;10.572;2024-03-06T07:21:54;101265.63;;;11.21;50.29
40490;BME280;26196;52.302;10.572;2024-03-06T07:25:55;101331.44;;;11.53;49.76
40490;BME280;26196;52.302;10.572;2024-03-06T07:29:59;101331.50;;;11.50;49.87
40490;BME280;26196;52.302;10.572;2024-03-06T07:34:00;101334.16;;;11.49;50.03
40490;BME280;26196;52.302;10.572;2024-03-06T07:38:02;101310.88;;;11.30;49.92
40490;BME280;26196;52.302;10.572;2024-03-06T07:42:05;101342.06;;;11.47;49.93
40490;BME280;26196;52.302;10.572;2024-03-06T07:46:07;101356.88;;;11.50;50.10
40490;BME280;26196;52.302;10.572;2024-03-06T07:50:12;101359.50;;;11.50;50.02
40490;BME280;26196;52.302;10.572;2024-03-06T07:54:14;101350.00;;;11.43;49.73
40490;BME280;26196;52.302;10.572;2024-03-06T07:58:16;101362.13;;;11.50;49.97
40490;BME280;26196;52.302;10.572;2024-03-06T08:02:18;101352.63;;;11.41;50.19
40490;BME280;26196;52.302;10.572;2024-03-06T08:06:19;101305.09;;;11.10;50.40
40490;BME280;26196;52.302;10.572;2024-03-06T08:10:21;101373.50;;;11.47;50.31
40490;BME280;26196;52.302;10.572;2024-03-06T08:14:22;101369.22;;;11.42;50.61
40490;BME280;26196;52.302;10.572;2024-03-06T08:18:25;101390.03;;;11.51;50.40
40490;BME280;26196;52.302;10.572;2024-03-06T08:22:26;101322.56;;;11.11;50.46
40490;BME280;26196;52.302;10.572;2024-03-06T08:26:28;101336.50;;;11.13;50.64
40490;BME280;26196;52.302;10.572;2024-03-06T08:30:30;101359.94;;;11.21;50.79
40490;BME280;26196;52.302;10.572;2024-03-06T08:34:34;101357.31;;;11.22;50.84
40490;BME280;26196;52.302;10.572;2024-03-06T08:38:36;101352.19;;;11.16;50.93
40490;BME280;26196;52.302;10.572;2024-03-06T08:42:37;101356.53;;;11.17;50.71
40490;BME280;26196;52.302;10.572;2024-03-06T08:46:39;101373.91;;;11.23;50.25
40490;BME280;26196;52.302;10.572;2024-03-06T08:50:40;101427.66;;;11.50;50.49
40490;BME280;26196;52.302;10.572;2024-03-06T08:54:42;101341.03;;;11.02;50.62
40490;BME280;26196;52.302;10.572;2024-03-06T08:58:44;101366.28;;;11.07;50.71
40490;BME280;26196;52.302;10.572;2024-03-06T09:02:45;101422.44;;;11.47;50.77
40490;BME280;26196;52.302;10.572;2024-03-06T09:06:47;101425.97;;;11.44;51.16
40490;BME280;26196;52.302;10.572;2024-03-06T09:10:50;101409.53;;;11.34;51.35
40490;BME280;26196;52.302;10.572;2024-03-06T09:14:51;101379.25;;;11.15;51.50
40490;BME280;26196;52.302;10.572;2024-03-06T09:18:53;101423.44;;;11.39;51.28
40490;BME280;26196;52.302;10.572;2024-03-06T09:22:54;101389.72;;;11.16;51.35
40490;BME280;26196;52.302;10.572;2024-03-06T09:26:58;101420.19;;;11.24;50.80
40490;BME280;26196;52.302;10.572;2024-03-06T09:31:00;101401.13;;;11.14;50.67
40490;BME280;26196;52.302;10.572;2024-03-06T09:35:02;101401.19;;;11.08;50.99
40490;BME280;26196;52.302;10.572;2024-03-06T09:39:04;101419.41;;;11.19;51.05
40490;BME280;26196;52.302;10.572;2024-03-06T09:43:07;101449.69;;;11.36;50.84
40490;BME280;26196;52.302;10.572;2024-03-06T09:47:13;101444.47;;;11.35;51.19
40490;BME280;26196;52.302;10.572;2024-03-06T09:51:18;101440.22;;;11.28;51.27
40490;BME280;26196;52.302;10.572;2024-03-06T09:55:19;101409.91;;;11.10;51.00
40490;BME280;26196;52.302;10.572;2024-03-06T09:59:21;101477.44;;;11.51;51.20
40490;BME280;26196;52.302;10.572;2024-03-06T10:03:23;101469.59;;;11.50;51.28
40490;BME280;26196;52.302;10.572;2024-03-06T10:07:24;101417.66;;;11.17;51.43
40490;BME280;26196;52.302;10.572;2024-03-06T10:11:28;101410.75;;;11.13;51.35
40490;BME280;26196;52.302;10.572;2024-03-06T10:15:30;101486.13;;;11.53;51.28
40490;BME280;26196;52.302;10.572;2024-03-06T10:19:32;101481.81;;;11.49;51.19
40490;BME280;26196;52.302;10.572;2024-03-06T10:23:34;101432.47;;;11.20;51.48
40490;BME280;26196;52.302;10.572;2024-03-06T10:27:36;101473.13;;;11.47;51.35
40490;BME280;26196;52.302;10.572;2024-03-06T10:31:38;101488.69;;;11.58;51.39
40490;BME280;26196;52.302;10.572;2024-03-06T10:35:43;101485.28;;;11.53;51.34
40490;BME280;26196;52.302;10.572;2024-03-06T10:39:47;101427.28;;;11.17;51.41
40490;BME280;26196;52.302;10.572;2024-03-06T10:43:52;101489.56;;;11.58;51.12
40490;BME280;26196;52.302;10.572;2024-03-06T10:47:56;101423.75;;;11.18;50.96
40490;BME280;26196;52.302;10.572;2024-03-06T10:52:00;101493.84;;;11.63;50.94
40490;BME280;26196;52.302;10.572;2024-03-06T10:56:03;101495.59;;;11.62;50.85
40490;BME280;26196;52.302;10.572;2024-03-06T11:00:08;101481.75;;;11.55;50.97
40490;BME280;26196;52.302;10.572;2024-03-06T11:04:13;101499.06;;;11.66;51.02
40490;BME280;26196;52.302;10.572;2024-03-06T11:08:15;101438.31;;;11.37;51.01
40490;BME280;26196;52.302;10.572;2024-03-06T11:12:35;101493.69;;;11.73;51.31
40490;BME280;26196;52.302;10.572;2024-03-06T11:25:05;101472.78;;;11.69;51.06
40490;BME280;26196;52.302;10.572;2024-03-06T11:29:07;101508.34;;;11.88;51.69
40490;BME280;26196;52.302;10.572;2024-03-06T11:33:12;101448.53;;;11.54;51.52
40490;BME280;26196;52.302;10.572;2024-03-06T11:37:20;101452.00;;;11.56;51.54
40490;BME280;26196;52.302;10.572;2024-03-06T11:41:22;101504.78;;;11.91;52.16
40490;BME280;26196;52.302;10.572;2024-03-06T11:45:26;101516.91;;;11.99;51.77
40490;BME280;26196;52.302;10.572;2024-03-06T11:49:32;101515.94;;;12.03;51.92
40490;BME280;26196;52.302;10.572;2024-03-06T11:53:35;101445.78;;;11.64;51.49
40490;BME280;26196;52.302;10.572;2024-03-06T11:57:38;101519.41;;;12.06;52.17
40490;BME280;26196;52.302;10.572;2024-03-06T12:01:41;101508.94;;;12.06;51.46
40490;BME280;26196;52.302;10.572;2024-03-06T12:05:44;101500.22;;;12.03;51.75
40490;BME280;26196;52.302;10.572;2024-03-06T12:09:47;101495.81;;;12.04;51.84
40490;BME280;26196;52.302;10.572;2024-03-06T12:13:48;101495.00;;;12.02;52.54
40490;BME280;26196;52.302;10.572;2024-03-06T12:17:50;101508.72;;;12.16;52.67
40490;BME280;26196;52.302;10.572;2024-03-06T12:21:54;101455.88;;;11.88;52.01
40490;BME280;26196;52.302;10.572;2024-03-06T12:26:09;101526.06;;;12.26;51.44
40490;BME280;26196;52.302;10.572;2024-03-06T12:30:18;101514.66;;;12.27;52.39
40490;BME280;26196;52.302;10.572;2024-03-06T12:34:19;101470.41;;;12.06;52.19
40490;BME280;26196;52.302;10.572;2024-03-06T12:38:21;101513.69;;;12.33;52.47
40490;BME280;26196;52.302;10.572;2024-03-06T12:42:23;101492.06;;;12.20;52.29
40490;BME280;26196;52.302;10.572;2024-03-06T12:46:25;101439.06;;;11.98;52.13
40490;BME280;26196;52.302;10.572;2024-03-06T12:50:28;101505.75;;;12.36;51.78
40490;BME280;26196;52.302;10.572;2024-03-06T12:54:29;101448.50;;;12.10;52.36
40490;BME280;26196;52.302;10.572;2024-03-06T12:58:31;101492.56;;;12.39;52.15
40490;BME280;26196;52.302;10.572;2024-03-06T13:02:32;101450.97;;;12.18;51.54
40490;BME280;26196;52.302;10.572;2024-03-06T13:06:34;101448.31;;;12.19;52.11
40490;BME280;26196;52.302;10.572;2024-03-06T13:10:35;101501.94;;;12.51;52.40
40490;BME280;26196;52.302;10.572;2024-03-06T13:14:37;101504.47;;;12.57;52.35
40490;BME280;26196;52.302;10.572;2024-03-06T13:18:38;101502.66;;;12.61;52.67
40490;BME280;26196;52.302;10.572;2024-03-06T13:22:40;101498.25;;;12.61;52.70
40490;BME280;26196;52.302;10.572;2024-03-06T13:26:42;101496.44;;;12.65;52.11
40490;BME280;26196;52.302;10.572;2024-03-06T13:30:43;101485.19;;;12.58;51.61
40490;BME280;26196;52.302;10.572;2024-03-06T13:34:45;101498.25;;;12.61;52.57
40490;BME280;26196;52.302;10.572;2024-03-06T13:38:46;101401.28;;;12.09;52.87
40490;BME280;26196;52.302;10.572;2024-03-06T13:42:48;101495.47;;;12.69;52.30
40490;BME280;26196;52.302;10.572;2024-03-06T13:46:50;101441.78;;;12.40;52.43
40490;BME280;26196;52.302;10.572;2024-03-06T13:50:51;101443.53;;;12.40;53.22
40490;BME280;26196;52.302;10.572;2024-03-06T13:54:53;101499.72;;;12.76;52.34
40490;BME280;26196;52.302;10.572;2024-03-06T13:58:54;101489.22;;;12.75;52.72
40490;BME280;26196;52.302;10.572;2024-03-06T14:02:56;101465.84;;;12.62;52.98
40490;BME280;26196;52.302;10.572;2024-03-06T14:06:59;101503.03;;;12.84;52.67
40490;BME280;26196;52.302;10.572;2024-03-06T14:11:01;101511.78;;;12.85;53.23
40490;BME280;26196;52.302;10.572;2024-03-06T14:15:06;101451.94;;;12.57;52.62
40490;BME280;26196;52.302;10.572;2024-03-06T14:19:10;101488.19;;;12.83;52.44
40490;BME280;26196;52.302;10.572;2024-03-06T14:23:12;101450.13;;;12.61;52.82
40490;BME280;26196;52.302;10.572;2024-03-06T14:27:14;101443.94;;;12.63;53.29
40490;BME280;26196;52.302;10.572;2024-03-06T14:31:18;101494.13;;;12.93;53.14
40490;BME280;26196;52.302;10.572;2024-03-06T14:35:20;101440.44;;;12.63;52.61
40490;BME280;26196;52.302;10.572;2024-03-06T14:39:21;101405.91;;;12.41;52.79
40490;BME280;26196;52.302;10.572;2024-03-06T14:43:25;101443.94;;;12.63;52.52
40490;BME280;26196;52.302;10.572;2024-03-06T14:47:26;101508.84;;;13.00;52.75
40490;BME280;26196;52.302;10.572;2024-03-06T14:51:28;101476.81;;;12.83;53.41
40490;BME280;26196;52.302;10.572;2024-03-06T14:55:30;101467.25;;;12.79;52.73
40490;BME280;26196;52.302;10.572;2024-03-06T14:59:32;101461.09;;;12.80;52.79
40490;BME280;26196;52.302;10.572;2024-03-06T15:03:33;101523.41;;;13.17;52.87
40490;BME280;26196;52.302;10.572;2024-03-06T15:07:35;101483.66;;;12.90;52.49
40490;BME280;26196;52.302;10.572;2024-03-06T15:11:37;101530.31;;;13.21;52.92
40490;BME280;26196;52.302;10.572;2024-03-06T15:15:39;101515.63;;;13.10;53.17
40490;BME280;26196;52.302;10.572;2024-03-06T15:19:41;101487.06;;;12.95;52.54
40490;BME280;26196;52.302;10.572;2024-03-06T15:23:43;101534.69;;;13.22;52.56
40490;BME280;26196;52.302;10.572;2024-03-06T15:27:45;101534.63;;;13.25;52.77
40490;BME280;26196;52.302;10.572;2024-03-06T15:31:47;101515.53;;;13.17;52.59
40490;BME280;26196;52.302;10.572;2024-03-06T15:35:48;101536.34;;;13.26;53.14
40490;BME280;26196;52.302;10.572;2024-03-06T15:39:50;101542.41;;;13.31;52.73
40490;BME280;26196;52.302;10.572;2024-03-06T15:43:52;101496.53;;;13.04;52.48
40490;BME280;26196;52.302;10.572;2024-03-06T15:47:53;101498.25;;;13.03;53.09
40490;BME280;26196;52.302;10.572;2024-03-06T15:51:55;101492.19;;;13.01;53.30
40490;BME280;26196;52.302;10.572;2024-03-06T15:55:57;101533.72;;;13.26;53.42
40490;BME280;26196;52.302;10.572;2024-03-06T15:59:58;101484.41;;;12.97;53.26
40490;BME280;26196;52.302;10.572;2024-03-06T16:04:00;101551.97;;;13.35;53.47
40490;BME280;26196;52.302;10.572;2024-03-06T16:08:02;101513.00;;;13.10;52.48
40490;BME280;26196;52.302;10.572;2024-03-06T16:12:06;101530.25;;;13.24;52.97
40490;BME280;26196;52.302;10.572;2024-03-06T16:16:08;101561.50;;;13.39;52.72
40490;BME280;26196;52.302;10.572;2024-03-06T16:20:10;101549.34;;;13.35;52.88
40490;BME280;26196;52.302;10.572;2024-03-06T16:24:12;101565.91;;;13.39;52.94
40490;BME280;26196;52.302;10.572;2024-03-06T16:28:13;101522.72;;;13.07;52.66
40490;BME280;26196;52.302;10.572;2024-03-06T16:32:15;101578.94;;;13.43;53.39
40490;BME280;26196;52.302;10.572;2024-03-06T16:36:17;101522.66;;;13.10;53.04
40490;BME280;26196;52.302;10.572;2024-03-06T16:40:18;101528.78;;;13.10;52.93
40490;BME280;26196;52.302;10.572;2024-03-06T16:44:20;101592.94;;;13.45;52.50
40490;BME280;26196;52.302;10.572;2024-03-06T16:48:24;101558.25;;;13.26;53.03
40490;BME280;26196;52.302;10.572;2024-03-06T16:52:26;101539.22;;;13.13;52.73
40490;BME280;26196;52.302;10.572;2024-03-06T16:56:29;101596.38;;;13.47;52.57
40490;BME280;26196;52.302;10.572;2024-03-06T17:00:31;101575.78;;;13.27;52.70
40490;BME280;26196;52.302;10.572;2024-03-06T17:04:34;101594.75;;;13.42;53.10
40490;BME280;26196;52.302;10.572;2024-03-06T17:08:35;101552.34;;;13.15;52.58
40490;BME280;26196;52.302;10.572;2024-03-06T17:12:37;101592.97;;;13.42;53.24
40490;BME280;26196;52.302;10.572;2024-03-06T17:16:39;101595.59;;;13.44;52.45
40490;BME280;26196;52.302;10.572;2024-03-06T17:20:40;101606.72;;;13.55;52.75
40490;BME280;26196;52.302;10.572;2024-03-06T17:24:44;101616.38;;;13.56;52.48
40490;BME280;26196;52.302;10.572;2024-03-06T17:28:45;101606.84;;;13.50;51.82
40490;BME280;26196;52.302;10.572;2024-03-06T17:32:52;101563.63;;;13.22;51.88
40490;BME280;26196;52.302;10.572;2024-03-06T17:36:56;101574.06;;;13.25;51.88
40490;BME280;26196;52.302;10.572;2024-03-06T17:40:59;101607.88;;;13.43;51.54
40490;BME280;26196;52.302;10.572;2024-03-06T17:45:01;101638.28;;;13.55;51.35
40490;BME280;26196;52.302;10.572;2024-03-06T17:49:02;101585.50;;;13.22;52.19
40490;BME280;26196;52.302;10.572;2024-03-06T17:53:04;101589.06;;;13.18;51.82
40490;BME280;26196;52.302;10.572;2024-03-06T17:57:06;101646.25;;;13.52;51.55
40490;BME280;26196;52.302;10.572;2024-03-06T18:01:08;101655.00;;;13.52;51.11
40490;BME280;26196;52.302;10.572;2024-03-06T18:05:10;101632.47;;;13.41;51.24
40490;BME280;26196;52.302;10.572;2024-03-06T18:09:12;101659.38;;;13.53;51.29
40490;BME280;26196;52.302;10.572;2024-03-06T18:13:17;101655.13;;;13.48;51.13
40490;BME280;26196;52.302;10.572;2024-03-06T18:17:18;101675.09;;;13.56;50.54
40490;BME280;26196;52.302;10.572;2024-03-06T18:21:22;101666.44;;;13.51;50.84
40490;BME280;26196;52.302;10.572;2024-03-06T18:25:24;101615.44;;;13.15;51.25
40490;BME280;26196;52.302;10.572;2024-03-06T18:29:29;101670.91;;;13.48;50.78
40490;BME280;26196;52.302;10.572;2024-03-06T18:33:31;101637.13;;;13.26;50.29
40490;BME280;26196;52.302;10.572;2024-03-06T18:37:32;101617.31;;;13.08;49.90
40490;BME280;26196;52.302;10.572;2024-03-06T18:41:34;101630.22;;;13.21;50.49
40490;BME280;26196;52.302;10.572;2024-03-06T18:45:36;101680.53;;;13.47;50.11
40490;BME280;26196;52.302;10.572;2024-03-06T18:49:39;101637.25;;;13.19;50.43
40490;BME280;26196;52.302;10.572;2024-03-06T18:53:40;101691.94;;;13.48;49.97
40490;BME280;26196;52.302;10.572;2024-03-06T18:57:42;101687.63;;;13.45;49.51
40490;BME280;26196;52.302;10.572;2024-03-06T19:01:43;101695.50;;;13.45;49.86
40490;BME280;26196;52.302;10.572;2024-03-06T19:05:47;101681.63;;;13.37;49.51
40490;BME280;26196;52.302;10.572;2024-03-06T19:09:51;101661.69;;;13.24;49.19
40490;BME280;26196;52.302;10.572;2024-03-06T19:13:52;101651.34;;;13.16;49.00
40490;BME280;26196;52.302;10.572;2024-03-06T19:17:54;101658.28;;;13.19;49.11
40490;BME280;26196;52.302;10.572;2024-03-06T19:21:56;101706.97;;;13.41;48.34
40490;BME280;26196;52.302;10.572;2024-03-06T19:25:57;101650.63;;;13.08;49.67
40490;BME280;26196;52.302;10.572;2024-03-06T19:29:59;101625.59;;;12.88;49.35
40490;BME280;26196;52.302;10.572;2024-03-06T19:34:01;101692.25;;;13.32;48.96
40490;BME280;26196;52.302;10.572;2024-03-06T19:38:03;101709.59;;;13.43;48.60
40490;BME280;26196;52.302;10.572;2024-03-06T19:42:04;101702.63;;;13.40;48.42
40490;BME280;26196;52.302;10.572;2024-03-06T19:46:06;101708.75;;;13.39;48.65
40490;BME280;26196;52.302;10.572;2024-03-06T19:50:08;101668.16;;;13.09;48.56
40490;BME280;26196;52.302;10.572;2024-03-06T19:54:10;101690.56;;;13.30;47.85
40490;BME280;26196;52.302;10.572;2024-03-06T19:58:12;101702.00;;;13.27;47.39
40490;BME280;26196;52.302;10.572;2024-03-06T20:02:14;101704.69;;;13.21;48.42
40490;BME280;26196;52.302;10.572;2024-03-06T20:06:16;101706.34;;;13.28;47.38
40490;BME280;26196;52.302;10.572;2024-03-06T20:10:17;101660.47;;;12.97;47.16
40490;BME280;26196;52.302;10.572;2024-03-06T20:14:22;101702.97;;;13.20;47.21
40490;BME280;26196;52.302;10.572;2024-03-06T20:18:23;101661.38;;;12.96;46.85
40490;BME280;26196;52.302;10.572;2024-03-06T20:22:25;101667.44;;;12.99;47.56
40490;BME280;26196;52.302;10.572;2024-03-06T20:26:27;101670.06;;;12.99;46.68
40490;BME280;26196;52.302;10.572;2024-03-06T20:30:28;101695.34;;;13.06;46.77
40490;BME280;26196;52.302;10.572;2024-03-06T20:34:30;101727.41;;;13.25;46.52
40490;BME280;26196;52.302;10.572;2024-03-06T20:38:31;101722.22;;;13.22;46.73
40490;BME280;26196;52.302;10.572;2024-03-06T20:42:34;101717.88;;;13.20;46.89
40490;BME280;26196;52.302;10.572;2024-03-06T20:46:35;101672.91;;;12.87;46.63
40490;BME280;26196;52.302;10.572;2024-03-06T20:50:37;101669.50;;;12.82;45.28
40490;BME280;26196;52.302;10.572;2024-03-06T20:54:40;101719.00;;;13.06;45.26
40490;BME280;26196;52.302;10.572;2024-03-06T20:58:42;101664.44;;;12.69;45.64
40490;BME280;26196;52.302;10.572;2024-03-06T21:02:44;101721.72;;;13.00;45.05